sensor_id;sensor_type;location;lat;lon;timestamp;P1;durP1;ratioP1;P2;durP2;ratioP2
67597;SDS011;62026;39.230;9.122;2023-05-15T00:00:20;4.30;;;1.05;;
67597;SDS011;62026;39.230;9.122;2023-05-15T00:02:47;2.22;;;0.82;;
67597;SDS011;62026;39.230;9.122;2023-05-15T00:05:13;3.53;;;1.08;;
67597;SDS011;62026;39.230;9.122;2023-05-15T00:07:39;2.25;;;1.00;;
67597;SDS011;62026;39.230;9.122;2023-05-15T00:10:06;4.07;;;1.00;;
67597;SDS011;62026;39.230;9.122;2023-05-15T00:12:33;3.00;;;1.08;;
67597;SDS011;62026;39.230;9.122;2023-05-15T00:14:59;1.60;;;0.88;;
67597;SDS011;62026;39.230;9.122;2023-05-15T00:17:25;4.10;;;1.15;;
67597;SDS011;62026;39.230;9.122;2023-05-15T00:19:51;3.05;;;0.95;;
67597;SDS011;62026;39.230;9.122;2023-05-15T00:22:21;7.13;;;1.38;;
67597;SDS011;62026;39.230;9.122;2023-05-15T00:24:48;4.65;;;1.20;;
67597;SDS011;62026;39.230;9.122;2023-05-15T00:27:14;5.03;;;1.13;;
67597;SDS011;62026;39.230;9.122;2023-05-15T00:29:40;3.20;;;1.10;;
67597;SDS011;62026;39.230;9.122;2023-05-15T00:32:06;3.63;;;1.05;;
67597;SDS011;62026;39.230;9.122;2023-05-15T00:34:32;4.90;;;1.13;;
67597;SDS011;62026;39.230;9.122;2023-05-15T00:36:59;2.35;;;1.20;;
67597;SDS011;62026;39.230;9.122;2023-05-15T00:39:25;5.43;;;1.10;;
67597;SDS011;62026;39.230;9.122;2023-05-15T00:41:51;6.20;;;1.40;;
67597;SDS011;62026;39.230;9.122;2023-05-15T00:44:20;6.70;;;1.70;;
67597;SDS011;62026;39.230;9.122;2023-05-15T00:46:47;3.60;;;1.05;;
67597;SDS011;62026;39.230;9.122;2023-05-15T00:49:15;5.50;;;1.25;;
67597;SDS011;62026;39.230;9.122;2023-05-15T00:51:44;5.03;;;1.20;;
67597;SDS011;62026;39.230;9.122;2023-05-15T00:54:10;7.80;;;1.35;;
67597;SDS011;62026;39.230;9.122;2023-05-15T00:56:36;3.83;;;0.90;;
67597;SDS011;62026;39.230;9.122;2023-05-15T00:59:03;8.63;;;1.30;;
67597;SDS011;62026;39.230;9.122;2023-05-15T01:01:31;6.85;;;1.30;;
67597;SDS011;62026;39.230;9.122;2023-05-15T01:03:59;3.80;;;1.08;;
67597;SDS011;62026;39.230;9.122;2023-05-15T01:06:31;3.40;;;0.90;;
67597;SDS011;62026;39.230;9.122;2023-05-15T01:08:59;4.43;;;1.33;;
67597;SDS011;62026;39.230;9.122;2023-05-15T01:11:28;1.92;;;0.90;;
67597;SDS011;62026;39.230;9.122;2023-05-15T01:14:01;3.70;;;1.05;;
67597;SDS011;62026;39.230;9.122;2023-05-15T01:19:01;5.93;;;1.00;;
67597;SDS011;62026;39.230;9.122;2023-05-15T01:29:56;2.65;;;0.90;;
67597;SDS011;62026;39.230;9.122;2023-05-15T01:32:53;3.30;;;0.90;;
67597;SDS011;62026;39.230;9.122;2023-05-15T01:36:00;4.15;;;1.30;;
67597;SDS011;62026;39.230;9.122;2023-05-15T01:39:02;3.50;;;1.00;;
67597;SDS011;62026;39.230;9.122;2023-05-15T01:41:34;2.63;;;1.00;;
67597;SDS011;62026;39.230;9.122;2023-05-15T01:44:25;4.60;;;1.10;;
67597;SDS011;62026;39.230;9.122;2023-05-15T01:46:56;2.92;;;0.95;;
67597;SDS011;62026;39.230;9.122;2023-05-15T01:49:26;5.03;;;0.90;;
67597;SDS011;62026;39.230;9.122;2023-05-15T01:52:00;2.42;;;0.90;;
67597;SDS011;62026;39.230;9.122;2023-05-15T01:54:44;3.15;;;0.93;;
67597;SDS011;62026;39.230;9.122;2023-05-15T01:57:13;3.63;;;1.02;;
67597;SDS011;62026;39.230;9.122;2023-05-15T01:59:41;6.55;;;1.40;;
67597;SDS011;62026;39.230;9.122;2023-05-15T02:02:09;2.67;;;1.20;;
67597;SDS011;62026;39.230;9.122;2023-05-15T02:04:37;4.45;;;1.10;;
67597;SDS011;62026;39.230;9.122;2023-05-15T02:07:05;3.10;;;1.10;;
67597;SDS011;62026;39.230;9.122;2023-05-15T02:09:32;5.60;;;1.13;;
67597;SDS011;62026;39.230;9.122;2023-05-15T02:12:00;5.22;;;1.10;;
67597;SDS011;62026;39.230;9.122;2023-05-15T02:14:28;2.60;;;1.00;;
67597;SDS011;62026;39.230;9.122;2023-05-15T02:16:55;2.28;;;1.00;;
67597;SDS011;62026;39.230;9.122;2023-05-15T02:19:21;3.55;;;1.33;;
67597;SDS011;62026;39.230;9.122;2023-05-15T02:21:47;3.78;;;1.10;;
67597;SDS011;62026;39.230;9.122;2023-05-15T02:24:13;1.73;;;0.85;;
67597;SDS011;62026;39.230;9.122;2023-05-15T02:35:35;4.25;;;1.10;;
67597;SDS011;62026;39.230;9.122;2023-05-15T02:38:14;2.97;;;1.13;;
67597;SDS011;62026;39.230;9.122;2023-05-15T02:40:44;4.75;;;1.20;;
67597;SDS011;62026;39.230;9.122;2023-05-15T02:43:13;4.15;;;1.25;;
67597;SDS011;62026;39.230;9.122;2023-05-15T02:45:42;3.60;;;1.48;;
67597;SDS011;62026;39.230;9.122;2023-05-15T02:48:11;6.05;;;1.00;;
67597;SDS011;62026;39.230;9.122;2023-05-15T02:50:38;4.03;;;0.90;;
67597;SDS011;62026;39.230;9.122;2023-05-15T02:53:05;4.05;;;1.00;;
67597;SDS011;62026;39.230;9.122;2023-05-15T02:55:34;3.47;;;1.00;;
67597;SDS011;62026;39.230;9.122;2023-05-15T02:58:01;4.97;;;1.25;;
67597;SDS011;62026;39.230;9.122;2023-05-15T03:00:28;4.38;;;1.08;;
67597;SDS011;62026;39.230;9.122;2023-05-15T03:02:54;4.60;;;0.90;;
67597;SDS011;62026;39.230;9.122;2023-05-15T03:05:20;4.50;;;1.10;;
67597;SDS011;62026;39.230;9.122;2023-05-15T03:07:46;2.53;;;0.93;;
67597;SDS011;62026;39.230;9.122;2023-05-15T03:10:12;3.13;;;1.15;;
67597;SDS011;62026;39.230;9.122;2023-05-15T03:12:38;2.88;;;1.00;;
67597;SDS011;62026;39.230;9.122;2023-05-15T03:15:05;3.35;;;1.00;;
67597;SDS011;62026;39.230;9.122;2023-05-15T03:17:31;6.38;;;1.00;;
67597;SDS011;62026;39.230;9.122;2023-05-15T03:19:57;2.50;;;0.98;;
67597;SDS011;62026;39.230;9.122;2023-05-15T03:22:23;4.28;;;1.35;;
67597;SDS011;62026;39.230;9.122;2023-05-15T03:24:50;2.53;;;1.17;;
67597;SDS011;62026;39.230;9.122;2023-05-15T03:27:16;7.32;;;1.10;;
67597;SDS011;62026;39.230;9.122;2023-05-15T03:29:42;3.47;;;1.10;;
67597;SDS011;62026;39.230;9.122;2023-05-15T03:32:08;3.78;;;1.10;;
67597;SDS011;62026;39.230;9.122;2023-05-15T03:34:34;4.90;;;1.00;;
67597;SDS011;62026;39.230;9.122;2023-05-15T03:37:01;11.05;;;1.10;;
67597;SDS011;62026;39.230;9.122;2023-05-15T03:39:27;4.55;;;0.98;;
67597;SDS011;62026;39.230;9.122;2023-05-15T03:41:53;3.10;;;1.08;;
67597;SDS011;62026;39.230;9.122;2023-05-15T03:44:20;1.58;;;0.90;;
67597;SDS011;62026;39.230;9.122;2023-05-15T03:46:46;2.75;;;0.93;;
67597;SDS011;62026;39.230;9.122;2023-05-15T03:49:12;3.00;;;1.00;;
67597;SDS011;62026;39.230;9.122;2023-05-15T03:51:38;5.60;;;1.20;;
67597;SDS011;62026;39.230;9.122;2023-05-15T03:54:05;4.38;;;1.05;;
67597;SDS011;62026;39.230;9.122;2023-05-15T03:56:31;4.78;;;1.08;;
67597;SDS011;62026;39.230;9.122;2023-05-15T03:58:58;2.30;;;1.00;;
67597;SDS011;62026;39.230;9.122;2023-05-15T04:01:24;3.78;;;1.15;;
67597;SDS011;62026;39.230;9.122;2023-05-15T04:03:50;3.10;;;0.77;;
67597;SDS011;62026;39.230;9.122;2023-05-15T04:06:16;4.45;;;1.00;;
67597;SDS011;62026;39.230;9.122;2023-05-15T04:08:42;7.20;;;1.20;;
67597;SDS011;62026;39.230;9.122;2023-05-15T04:11:09;3.65;;;1.17;;
67597;SDS011;62026;39.230;9.122;2023-05-15T04:13:36;4.97;;;1.10;;
67597;SDS011;62026;39.230;9.122;2023-05-15T04:16:02;5.63;;;0.90;;
67597;SDS011;62026;39.230;9.122;2023-05-15T04:18:28;4.43;;;1.13;;
67597;SDS011;62026;39.230;9.122;2023-05-15T04:20:54;6.72;;;0.90;;
67597;SDS011;62026;39.230;9.122;2023-05-15T04:23:20;6.05;;;1.10;;
67597;SDS011;62026;39.230;9.122;2023-05-15T04:25:46;5.25;;;1.42;;
67597;SDS011;62026;39.230;9.122;2023-05-15T04:28:13;2.30;;;1.00;;
67597;SDS011;62026;39.230;9.122;2023-05-15T04:30:39;6.68;;;1.48;;
67597;SDS011;62026;39.230;9.122;2023-05-15T04:33:06;4.00;;;1.60;;
67597;SDS011;62026;39.230;9.122;2023-05-15T04:35:32;5.93;;;1.45;;
67597;SDS011;62026;39.230;9.122;2023-05-15T04:37:58;6.57;;;1.60;;
67597;SDS011;62026;39.230;9.122;2023-05-15T04:40:24;3.22;;;1.27;;
67597;SDS011;62026;39.230;9.122;2023-05-15T04:42:50;3.22;;;1.10;;
67597;SDS011;62026;39.230;9.122;2023-05-15T04:45:16;2.35;;;1.10;;
67597;SDS011;62026;39.230;9.122;2023-05-15T04:47:42;5.40;;;1.30;;
67597;SDS011;62026;39.230;9.122;2023-05-15T04:50:08;3.42;;;1.30;;
67597;SDS011;62026;39.230;9.122;2023-05-15T04:52:35;3.25;;;1.40;;
67597;SDS011;62026;39.230;9.122;2023-05-15T04:55:01;5.22;;;1.38;;
67597;SDS011;62026;39.230;9.122;2023-05-15T04:57:28;3.50;;;1.38;;
67597;SDS011;62026;39.230;9.122;2023-05-15T04:59:54;5.32;;;1.10;;
67597;SDS011;62026;39.230;9.122;2023-05-15T05:02:22;5.70;;;1.10;;
67597;SDS011;62026;39.230;9.122;2023-05-15T05:04:48;7.20;;;1.17;;
67597;SDS011;62026;39.230;9.122;2023-05-15T05:07:15;4.10;;;1.38;;
67597;SDS011;62026;39.230;9.122;2023-05-15T05:09:41;5.30;;;1.70;;
67597;SDS011;62026;39.230;9.122;2023-05-15T05:12:07;3.53;;;1.40;;
67597;SDS011;62026;39.230;9.122;2023-05-15T05:14:34;7.13;;;2.05;;
67597;SDS011;62026;39.230;9.122;2023-05-15T05:17:00;6.82;;;1.60;;
67597;SDS011;62026;39.230;9.122;2023-05-15T05:19:27;5.55;;;1.25;;
67597;SDS011;62026;39.230;9.122;2023-05-15T05:21:53;4.38;;;1.20;;
67597;SDS011;62026;39.230;9.122;2023-05-15T05:24:19;5.75;;;1.38;;
67597;SDS011;62026;39.230;9.122;2023-05-15T05:26:46;5.97;;;1.55;;
67597;SDS011;62026;39.230;9.122;2023-05-15T05:29:12;2.80;;;1.30;;
67597;SDS011;62026;39.230;9.122;2023-05-15T05:31:38;7.25;;;1.27;;
67597;SDS011;62026;39.230;9.122;2023-05-15T05:34:05;8.48;;;1.65;;
67597;SDS011;62026;39.230;9.122;2023-05-15T05:36:33;3.15;;;1.63;;
67597;SDS011;62026;39.230;9.122;2023-05-15T05:39:01;4.68;;;1.60;;
67597;SDS011;62026;39.230;9.122;2023-05-15T05:41:28;7.60;;;1.98;;
67597;SDS011;62026;39.230;9.122;2023-05-15T05:43:54;4.28;;;1.50;;
67597;SDS011;62026;39.230;9.122;2023-05-15T05:46:20;5.28;;;1.40;;
67597;SDS011;62026;39.230;9.122;2023-05-15T05:48:46;3.28;;;1.42;;
67597;SDS011;62026;39.230;9.122;2023-05-15T05:51:12;3.63;;;1.38;;
67597;SDS011;62026;39.230;9.122;2023-05-15T05:53:39;4.30;;;1.05;;
67597;SDS011;62026;39.230;9.122;2023-05-15T05:56:05;4.53;;;1.20;;
67597;SDS011;62026;39.230;9.122;2023-05-15T05:58:32;4.28;;;1.33;;
67597;SDS011;62026;39.230;9.122;2023-05-15T06:00:58;4.60;;;1.25;;
67597;SDS011;62026;39.230;9.122;2023-05-15T06:03:25;2.75;;;1.30;;
67597;SDS011;62026;39.230;9.122;2023-05-15T06:05:51;7.97;;;1.42;;
67597;SDS011;62026;39.230;9.122;2023-05-15T06:08:18;2.05;;;1.00;;
67597;SDS011;62026;39.230;9.122;2023-05-15T06:10:44;6.93;;;1.10;;
67597;SDS011;62026;39.230;9.122;2023-05-15T06:13:10;4.25;;;1.17;;
67597;SDS011;62026;39.230;9.122;2023-05-15T06:15:39;4.10;;;1.25;;
67597;SDS011;62026;39.230;9.122;2023-05-15T06:18:05;5.13;;;1.25;;
67597;SDS011;62026;39.230;9.122;2023-05-15T06:20:32;5.85;;;1.38;;
67597;SDS011;62026;39.230;9.122;2023-05-15T06:22:58;5.55;;;1.30;;
67597;SDS011;62026;39.230;9.122;2023-05-15T06:25:24;7.20;;;1.38;;
67597;SDS011;62026;39.230;9.122;2023-05-15T06:27:50;6.78;;;1.58;;
67597;SDS011;62026;39.230;9.122;2023-05-15T06:30:16;4.40;;;1.45;;
67597;SDS011;62026;39.230;9.122;2023-05-15T06:32:42;4.47;;;1.20;;
67597;SDS011;62026;39.230;9.122;2023-05-15T06:35:08;5.57;;;1.10;;
67597;SDS011;62026;39.230;9.122;2023-05-15T06:37:35;7.50;;;1.65;;
67597;SDS011;62026;39.230;9.122;2023-05-15T06:40:01;6.15;;;1.20;;
67597;SDS011;62026;39.230;9.122;2023-05-15T06:42:29;1.90;;;0.80;;
67597;SDS011;62026;39.230;9.122;2023-05-15T06:44:55;3.80;;;1.27;;
67597;SDS011;62026;39.230;9.122;2023-05-15T06:47:21;4.07;;;1.10;;
67597;SDS011;62026;39.230;9.122;2023-05-15T06:49:48;4.78;;;0.90;;
67597;SDS011;62026;39.230;9.122;2023-05-15T06:52:14;3.53;;;1.23;;
67597;SDS011;62026;39.230;9.122;2023-05-15T06:54:40;3.05;;;1.10;;
67597;SDS011;62026;39.230;9.122;2023-05-15T06:57:06;3.03;;;1.13;;
67597;SDS011;62026;39.230;9.122;2023-05-15T06:59:33;1.80;;;1.00;;
67597;SDS011;62026;39.230;9.122;2023-05-15T07:02:02;5.35;;;0.90;;
67597;SDS011;62026;39.230;9.122;2023-05-15T07:04:29;5.95;;;1.00;;
67597;SDS011;62026;39.230;9.122;2023-05-15T07:06:56;4.00;;;1.15;;
67597;SDS011;62026;39.230;9.122;2023-05-15T07:09:22;2.83;;;0.90;;
67597;SDS011;62026;39.230;9.122;2023-05-15T07:11:49;5.68;;;1.00;;
67597;SDS011;62026;39.230;9.122;2023-05-15T07:14:15;6.38;;;1.15;;
67597;SDS011;62026;39.230;9.122;2023-05-15T07:16:41;4.07;;;1.13;;
67597;SDS011;62026;39.230;9.122;2023-05-15T07:19:08;6.13;;;1.50;;
67597;SDS011;62026;39.230;9.122;2023-05-15T07:21:34;4.40;;;1.13;;
67597;SDS011;62026;39.230;9.122;2023-05-15T07:24:01;2.78;;;1.10;;
67597;SDS011;62026;39.230;9.122;2023-05-15T07:26:30;2.50;;;1.10;;
67597;SDS011;62026;39.230;9.122;2023-05-15T07:28:57;4.97;;;1.27;;
67597;SDS011;62026;39.230;9.122;2023-05-15T07:31:23;1.90;;;1.15;;
67597;SDS011;62026;39.230;9.122;2023-05-15T07:33:49;3.22;;;1.02;;
67597;SDS011;62026;39.230;9.122;2023-05-15T07:36:15;4.07;;;1.45;;
67597;SDS011;62026;39.230;9.122;2023-05-15T07:38:41;2.33;;;1.02;;
67597;SDS011;62026;39.230;9.122;2023-05-15T07:41:07;2.88;;;1.13;;
67597;SDS011;62026;39.230;9.122;2023-05-15T07:43:33;3.25;;;1.10;;
67597;SDS011;62026;39.230;9.122;2023-05-15T07:45:59;4.00;;;1.10;;
67597;SDS011;62026;39.230;9.122;2023-05-15T07:48:25;6.38;;;1.17;;
67597;SDS011;62026;39.230;9.122;2023-05-15T07:50:51;1.45;;;0.80;;
67597;SDS011;62026;39.230;9.122;2023-05-15T07:53:19;4.82;;;0.80;;
67597;SDS011;62026;39.230;9.122;2023-05-15T07:55:45;5.10;;;1.00;;
67597;SDS011;62026;39.230;9.122;2023-05-15T07:58:12;3.92;;;1.42;;
67597;SDS011;62026;39.230;9.122;2023-05-15T08:00:38;4.28;;;1.17;;
67597;SDS011;62026;39.230;9.122;2023-05-15T08:03:04;6.45;;;1.25;;
67597;SDS011;62026;39.230;9.122;2023-05-15T08:05:30;9.25;;;1.40;;
67597;SDS011;62026;39.230;9.122;2023-05-15T08:07:56;1.92;;;1.00;;
67597;SDS011;62026;39.230;9.122;2023-05-15T08:10:23;2.47;;;1.10;;
67597;SDS011;62026;39.230;9.122;2023-05-15T08:12:49;3.95;;;1.02;;
67597;SDS011;62026;39.230;9.122;2023-05-15T08:15:15;2.72;;;1.13;;
67597;SDS011;62026;39.230;9.122;2023-05-15T08:17:41;4.82;;;1.15;;
67597;SDS011;62026;39.230;9.122;2023-05-15T08:32:11;4.10;;;1.00;;
67597;SDS011;62026;39.230;9.122;2023-05-15T08:34:37;1.60;;;1.00;;
67597;SDS011;62026;39.230;9.122;2023-05-15T08:37:03;2.92;;;1.10;;
67597;SDS011;62026;39.230;9.122;2023-05-15T08:39:30;3.08;;;1.00;;
67597;SDS011;62026;39.230;9.122;2023-05-15T08:41:57;3.97;;;1.25;;
67597;SDS011;62026;39.230;9.122;2023-05-15T08:44:32;6.85;;;1.40;;
67597;SDS011;62026;39.230;9.122;2023-05-15T08:46:58;3.92;;;1.27;;
67597;SDS011;62026;39.230;9.122;2023-05-15T08:52:34;8.60;;;1.20;;
67597;SDS011;62026;39.230;9.122;2023-05-15T08:55:00;9.98;;;1.27;;
67597;SDS011;62026;39.230;9.122;2023-05-15T08:57:28;3.30;;;1.30;;
67597;SDS011;62026;39.230;9.122;2023-05-15T08:59:56;4.05;;;1.25;;
67597;SDS011;62026;39.230;9.122;2023-05-15T09:02:23;7.47;;;1.38;;
67597;SDS011;62026;39.230;9.122;2023-05-15T09:04:50;2.00;;;0.98;;
67597;SDS011;62026;39.230;9.122;2023-05-15T09:07:16;5.03;;;1.13;;
67597;SDS011;62026;39.230;9.122;2023-05-15T09:09:44;6.10;;;1.10;;
67597;SDS011;62026;39.230;9.122;2023-05-15T09:12:15;3.85;;;1.27;;
67597;SDS011;62026;39.230;9.122;2023-05-15T09:14:42;3.35;;;1.13;;
67597;SDS011;62026;39.230;9.122;2023-05-15T09:17:09;4.10;;;1.10;;
67597;SDS011;62026;39.230;9.122;2023-05-15T09:19:37;3.83;;;1.15;;
67597;SDS011;62026;39.230;9.122;2023-05-15T09:22:17;6.32;;;1.10;;
67597;SDS011;62026;39.230;9.122;2023-05-15T09:24:51;5.20;;;1.17;;
67597;SDS011;62026;39.230;9.122;2023-05-15T09:27:18;3.88;;;1.23;;
67597;SDS011;62026;39.230;9.122;2023-05-15T09:29:44;3.47;;;0.90;;
67597;SDS011;62026;39.230;9.122;2023-05-15T09:32:11;8.48;;;1.20;;
67597;SDS011;62026;39.230;9.122;2023-05-15T09:34:42;3.17;;;1.58;;
67597;SDS011;62026;39.230;9.122;2023-05-15T09:37:11;3.28;;;0.80;;
67597;SDS011;62026;39.230;9.122;2023-05-15T09:39:53;4.22;;;1.10;;
67597;SDS011;62026;39.230;9.122;2023-05-15T09:42:19;4.30;;;1.50;;
67597;SDS011;62026;39.230;9.122;2023-05-15T09:44:49;7.30;;;1.50;;
67597;SDS011;62026;39.230;9.122;2023-05-15T09:47:15;3.22;;;1.10;;
67597;SDS011;62026;39.230;9.122;2023-05-15T09:49:42;5.85;;;1.40;;
67597;SDS011;62026;39.230;9.122;2023-05-15T09:52:09;5.25;;;1.40;;
67597;SDS011;62026;39.230;9.122;2023-05-15T09:54:36;3.58;;;1.10;;
67597;SDS011;62026;39.230;9.122;2023-05-15T09:57:12;4.63;;;1.23;;
67597;SDS011;62026;39.230;9.122;2023-05-15T09:59:42;4.05;;;1.38;;
67597;SDS011;62026;39.230;9.122;2023-05-15T10:02:27;4.50;;;1.30;;
67597;SDS011;62026;39.230;9.122;2023-05-15T10:04:56;2.83;;;1.00;;
67597;SDS011;62026;39.230;9.122;2023-05-15T10:07:40;2.25;;;0.95;;
67597;SDS011;62026;39.230;9.122;2023-05-15T10:10:06;7.53;;;1.20;;
67597;SDS011;62026;39.230;9.122;2023-05-15T10:12:33;6.38;;;1.50;;
67597;SDS011;62026;39.230;9.122;2023-05-15T10:15:00;3.95;;;1.65;;
67597;SDS011;62026;39.230;9.122;2023-05-15T10:17:28;7.65;;;1.33;;
67597;SDS011;62026;39.230;9.122;2023-05-15T10:19:58;4.43;;;1.48;;
67597;SDS011;62026;39.230;9.122;2023-05-15T10:22:29;5.43;;;1.52;;
67597;SDS011;62026;39.230;9.122;2023-05-15T10:25:08;5.43;;;1.45;;
67597;SDS011;62026;39.230;9.122;2023-05-15T10:28:13;4.50;;;1.23;;
67597;SDS011;62026;39.230;9.122;2023-05-15T10:30:41;6.07;;;1.05;;
67597;SDS011;62026;39.230;9.122;2023-05-15T10:33:08;4.63;;;1.45;;
67597;SDS011;62026;39.230;9.122;2023-05-15T10:35:40;5.72;;;1.30;;
67597;SDS011;62026;39.230;9.122;2023-05-15T10:38:07;5.32;;;1.55;;
67597;SDS011;62026;39.230;9.122;2023-05-15T10:40:36;5.13;;;1.30;;
67597;SDS011;62026;39.230;9.122;2023-05-15T10:43:04;4.78;;;1.15;;
67597;SDS011;62026;39.230;9.122;2023-05-15T10:45:31;3.65;;;1.20;;
67597;SDS011;62026;39.230;9.122;2023-05-15T10:47:59;6.50;;;1.95;;
67597;SDS011;62026;39.230;9.122;2023-05-15T10:50:28;4.18;;;1.48;;
67597;SDS011;62026;39.230;9.122;2023-05-15T10:52:54;2.97;;;1.13;;
67597;SDS011;62026;39.230;9.122;2023-05-15T10:55:21;6.32;;;1.38;;
67597;SDS011;62026;39.230;9.122;2023-05-15T10:57:47;4.68;;;1.75;;
67597;SDS011;62026;39.230;9.122;2023-05-15T11:00:23;6.00;;;1.50;;
67597;SDS011;62026;39.230;9.122;2023-05-15T11:02:53;8.35;;;1.67;;
67597;SDS011;62026;39.230;9.122;2023-05-15T11:05:21;3.83;;;1.52;;
67597;SDS011;62026;39.230;9.122;2023-05-15T11:08:22;6.45;;;1.90;;
67597;SDS011;62026;39.230;9.122;2023-05-15T11:10:40;3.83;;;1.50;;
67597;SDS011;62026;39.230;9.122;2023-05-15T11:13:06;7.18;;;1.30;;
67597;SDS011;62026;39.230;9.122;2023-05-15T11:15:41;7.53;;;1.90;;
67597;SDS011;62026;39.230;9.122;2023-05-15T11:18:09;4.22;;;1.30;;
67597;SDS011;62026;39.230;9.122;2023-05-15T11:21:04;5.03;;;1.77;;
67597;SDS011;62026;39.230;9.122;2023-05-15T11:23:28;4.22;;;1.20;;
67597;SDS011;62026;39.230;9.122;2023-05-15T11:26:04;5.90;;;1.45;;
67597;SDS011;62026;39.230;9.122;2023-05-15T11:28:30;3.38;;;1.30;;
67597;SDS011;62026;39.230;9.122;2023-05-15T11:31:06;5.10;;;1.45;;
67597;SDS011;62026;39.230;9.122;2023-05-15T11:33:32;8.75;;;1.88;;
67597;SDS011;62026;39.230;9.122;2023-05-15T11:35:58;5.68;;;1.85;;
67597;SDS011;62026;39.230;9.122;2023-05-15T11:38:25;4.43;;;1.20;;
67597;SDS011;62026;39.230;9.122;2023-05-15T11:40:52;5.95;;;1.27;;
67597;SDS011;62026;39.230;9.122;2023-05-15T11:48:30;6.65;;;1.45;;
67597;SDS011;62026;39.230;9.122;2023-05-15T11:53:49;2.83;;;1.20;;
67597;SDS011;62026;39.230;9.122;2023-05-15T11:56:24;7.10;;;1.30;;
67597;SDS011;62026;39.230;9.122;2023-05-15T11:58:55;4.50;;;1.20;;
67597;SDS011;62026;39.230;9.122;2023-05-15T12:01:23;6.60;;;1.25;;
67597;SDS011;62026;39.230;9.122;2023-05-15T12:03:50;3.65;;;1.00;;
67597;SDS011;62026;39.230;9.122;2023-05-15T12:06:18;8.65;;;1.70;;
67597;SDS011;62026;39.230;9.122;2023-05-15T12:08:49;7.68;;;1.50;;
67597;SDS011;62026;39.230;9.122;2023-05-15T12:11:32;2.78;;;1.20;;
67597;SDS011;62026;39.230;9.122;2023-05-15T12:13:58;3.72;;;1.40;;
67597;SDS011;62026;39.230;9.122;2023-05-15T12:16:25;4.38;;;1.40;;
67597;SDS011;62026;39.230;9.122;2023-05-15T12:18:52;8.88;;;1.38;;
67597;SDS011;62026;39.230;9.122;2023-05-15T12:21:21;4.82;;;1.10;;
67597;SDS011;62026;39.230;9.122;2023-05-15T12:23:50;9.75;;;1.52;;
67597;SDS011;62026;39.230;9.122;2023-05-15T12:26:17;8.27;;;1.80;;
67597;SDS011;62026;39.230;9.122;2023-05-15T12:28:47;5.55;;;1.77;;
67597;SDS011;62026;39.230;9.122;2023-05-15T12:31:15;6.95;;;2.40;;
67597;SDS011;62026;39.230;9.122;2023-05-15T12:33:42;5.50;;;2.25;;
67597;SDS011;62026;39.230;9.122;2023-05-15T12:36:09;6.07;;;1.40;;
67597;SDS011;62026;39.230;9.122;2023-05-15T12:38:35;5.68;;;1.40;;
67597;SDS011;62026;39.230;9.122;2023-05-15T12:41:01;6.65;;;1.40;;
67597;SDS011;62026;39.230;9.122;2023-05-15T12:43:27;6.90;;;1.40;;
67597;SDS011;62026;39.230;9.122;2023-05-15T12:45:56;8.68;;;2.65;;
67597;SDS011;62026;39.230;9.122;2023-05-15T12:48:28;6.72;;;1.90;;
67597;SDS011;62026;39.230;9.122;2023-05-15T12:50:56;7.68;;;1.50;;
67597;SDS011;62026;39.230;9.122;2023-05-15T12:53:31;3.75;;;1.30;;
67597;SDS011;62026;39.230;9.122;2023-05-15T12:56:00;6.57;;;2.17;;
67597;SDS011;62026;39.230;9.122;2023-05-15T12:58:26;7.72;;;3.03;;
67597;SDS011;62026;39.230;9.122;2023-05-15T13:00:52;9.02;;;2.97;;
67597;SDS011;62026;39.230;9.122;2023-05-15T13:03:21;7.90;;;2.30;;
67597;SDS011;62026;39.230;9.122;2023-05-15T13:05:49;6.07;;;1.60;;
67597;SDS011;62026;39.230;9.122;2023-05-15T13:08:19;5.30;;;2.03;;
67597;SDS011;62026;39.230;9.122;2023-05-15T13:10:46;6.63;;;2.13;;
67597;SDS011;62026;39.230;9.122;2023-05-15T13:13:21;11.75;;;3.13;;
67597;SDS011;62026;39.230;9.122;2023-05-15T13:15:47;6.15;;;1.52;;
67597;SDS011;62026;39.230;9.122;2023-05-15T13:18:15;6.63;;;1.67;;
67597;SDS011;62026;39.230;9.122;2023-05-15T13:20:43;9.60;;;1.30;;
67597;SDS011;62026;39.230;9.122;2023-05-15T13:23:14;4.30;;;1.50;;
67597;SDS011;62026;39.230;9.122;2023-05-15T13:25:43;7.15;;;1.80;;
67597;SDS011;62026;39.230;9.122;2023-05-15T13:28:10;6.82;;;1.60;;
67597;SDS011;62026;39.230;9.122;2023-05-15T13:30:37;6.30;;;1.80;;
67597;SDS011;62026;39.230;9.122;2023-05-15T13:33:07;7.05;;;1.60;;
67597;SDS011;62026;39.230;9.122;2023-05-15T13:35:35;4.10;;;1.20;;
67597;SDS011;62026;39.230;9.122;2023-05-15T13:38:02;4.55;;;1.50;;
67597;SDS011;62026;39.230;9.122;2023-05-15T13:40:28;4.00;;;1.50;;
67597;SDS011;62026;39.230;9.122;2023-05-15T13:42:57;5.75;;;1.88;;
67597;SDS011;62026;39.230;9.122;2023-05-15T13:45:23;4.95;;;1.40;;
67597;SDS011;62026;39.230;9.122;2023-05-15T13:47:49;4.47;;;1.70;;
67597;SDS011;62026;39.230;9.122;2023-05-15T13:50:16;7.20;;;1.02;;
67597;SDS011;62026;39.230;9.122;2023-05-15T13:52:43;4.78;;;0.88;;
67597;SDS011;62026;39.230;9.122;2023-05-15T13:55:10;4.82;;;0.82;;
67597;SDS011;62026;39.230;9.122;2023-05-15T13:57:40;4.70;;;1.00;;
67597;SDS011;62026;39.230;9.122;2023-05-15T14:00:08;3.42;;;1.15;;
67597;SDS011;62026;39.230;9.122;2023-05-15T14:02:37;9.68;;;1.10;;
67597;SDS011;62026;39.230;9.122;2023-05-15T14:05:08;3.90;;;0.90;;
67597;SDS011;62026;39.230;9.122;2023-05-15T14:07:36;3.72;;;0.70;;
67597;SDS011;62026;39.230;9.122;2023-05-15T14:10:02;3.38;;;0.90;;
67597;SDS011;62026;39.230;9.122;2023-05-15T14:12:30;4.80;;;0.70;;
67597;SDS011;62026;39.230;9.122;2023-05-15T14:14:56;6.88;;;0.90;;
67597;SDS011;62026;39.230;9.122;2023-05-15T14:17:23;6.72;;;1.00;;
67597;SDS011;62026;39.230;9.122;2023-05-15T14:19:49;8.00;;;1.25;;
67597;SDS011;62026;39.230;9.122;2023-05-15T14:22:15;9.05;;;1.02;;
67597;SDS011;62026;39.230;9.122;2023-05-15T14:24:41;8.60;;;1.00;;
67597;SDS011;62026;39.230;9.122;2023-05-15T14:27:07;11.10;;;1.27;;
67597;SDS011;62026;39.230;9.122;2023-05-15T14:29:33;11.60;;;1.00;;
67597;SDS011;62026;39.230;9.122;2023-05-15T14:31:59;7.18;;;1.20;;
67597;SDS011;62026;39.230;9.122;2023-05-15T14:34:26;6.97;;;1.10;;
67597;SDS011;62026;39.230;9.122;2023-05-15T14:36:54;6.65;;;0.95;;
67597;SDS011;62026;39.230;9.122;2023-05-15T14:39:19;12.68;;;1.45;;
67597;SDS011;62026;39.230;9.122;2023-05-15T14:41:45;5.78;;;0.90;;
67597;SDS011;62026;39.230;9.122;2023-05-15T14:44:11;4.00;;;0.95;;
67597;SDS011;62026;39.230;9.122;2023-05-15T14:46:40;11.45;;;1.17;;
67597;SDS011;62026;39.230;9.122;2023-05-15T14:49:07;5.25;;;0.93;;
67597;SDS011;62026;39.230;9.122;2023-05-15T14:51:33;4.55;;;1.05;;
67597;SDS011;62026;39.230;9.122;2023-05-15T14:53:59;4.13;;;0.88;;
67597;SDS011;62026;39.230;9.122;2023-05-15T14:56:25;5.97;;;0.80;;
67597;SDS011;62026;39.230;9.122;2023-05-15T14:58:51;6.93;;;1.25;;
67597;SDS011;62026;39.230;9.122;2023-05-15T15:01:18;6.65;;;0.90;;
67597;SDS011;62026;39.230;9.122;2023-05-15T15:03:44;5.35;;;1.00;;
67597;SDS011;62026;39.230;9.122;2023-05-15T15:06:10;10.30;;;1.27;;
67597;SDS011;62026;39.230;9.122;2023-05-15T15:08:36;12.65;;;1.30;;
67597;SDS011;62026;39.230;9.122;2023-05-15T15:11:02;8.05;;;0.93;;
67597;SDS011;62026;39.230;9.122;2023-05-15T15:13:30;4.88;;;0.90;;
67597;SDS011;62026;39.230;9.122;2023-05-15T15:15:56;4.15;;;0.95;;
67597;SDS011;62026;39.230;9.122;2023-05-15T15:18:22;7.78;;;1.00;;
67597;SDS011;62026;39.230;9.122;2023-05-15T15:20:48;6.30;;;1.02;;
67597;SDS011;62026;39.230;9.122;2023-05-15T15:23:14;4.60;;;1.00;;
67597;SDS011;62026;39.230;9.122;2023-05-15T15:25:40;2.58;;;0.77;;
67597;SDS011;62026;39.230;9.122;2023-05-15T15:28:06;7.15;;;1.10;;
67597;SDS011;62026;39.230;9.122;2023-05-15T15:30:33;14.02;;;1.38;;
67597;SDS011;62026;39.230;9.122;2023-05-15T15:32:59;4.30;;;0.73;;
67597;SDS011;62026;39.230;9.122;2023-05-15T15:35:25;8.85;;;0.98;;